Terminal Aerodrome Forecast
Issued by NWS Albany, NY

Home | Current Version | Previous Version | Text Only | Print | Product List | Glossary On
Versions: 1 2 3 4 5 6 7 8 9 10 11 12 13 14 15
539
FTUS41 KALY 172340
TAFALB
TAF
KALB 172340Z 1800/1824 18006KT P6SM SCT120 BKN250
     FM180300 18005KT P6SM SCT050 BKN120
     FM180600 16005KT P6SM SCT025 OVC050
      TEMPO 1806/1810 4SM -SHRA BR BKN025 OVC050
     FM181000 17007KT 4SM -SHRA BR OVC015 PROB30 1810/1814 2SM -TSRA
      OVC007CB
     FM181400 18010G18KT 4SM BR VCSH SCT007 OVC015
     FM181800 18010G20KT 4SM -SHRA BR OVC015 PROB30 1818/1824 1
      1/2SM -TSRA BKN007CB=

USA.gov is the U.S. government's official web portal to all federal, state and local government web resources and services.